createdAt,value
2023-03-07T00:01:28.425Z,1.20
2023-03-07T00:03:57.584Z,1.17
2023-03-07T00:06:26.304Z,1.16
2023-03-07T00:08:56.927Z,1.18
2023-03-07T00:11:29.631Z,1.20
2023-03-07T00:13:58.087Z,1.16
2023-03-07T00:16:26.801Z,1.11
2023-03-07T00:18:55.156Z,1.07
2023-03-07T00:21:23.635Z,1.03
2023-03-07T00:23:52.728Z,1.01
2023-03-07T00:26:22.482Z,0.98
2023-03-07T00:28:52.380Z,0.94
2023-03-07T00:31:21.108Z,0.94
2023-03-07T00:33:51.364Z,0.98
2023-03-07T00:36:21.841Z,0.99
2023-03-07T00:38:55.908Z,1.00
2023-03-07T00:41:26.024Z,0.99
2023-03-07T00:43:55.441Z,1.01
2023-03-07T00:46:24.664Z,1.02
2023-03-07T00:48:53.617Z,1.02
2023-03-07T00:51:27.740Z,0.97
2023-03-07T00:53:56.314Z,0.90
2023-03-07T00:56:25.514Z,0.91
2023-03-07T00:58:55.018Z,0.96
2023-03-07T01:01:24.351Z,0.94
2023-03-07T01:03:53.971Z,0.90
2023-03-07T01:06:25.443Z,0.83
2023-03-07T01:08:56.527Z,0.80
2023-03-07T01:11:27.467Z,0.81
2023-03-07T01:13:57.403Z,0.83
2023-03-07T01:16:27.900Z,0.86
2023-03-07T01:18:58.850Z,0.83
2023-03-07T01:21:32.859Z,0.84
2023-03-07T01:24:05.562Z,0.89
2023-03-07T01:26:35.452Z,0.90
2023-03-07T01:29:05.022Z,0.92
2023-03-07T01:31:36.045Z,0.92
2023-03-07T01:34:07.246Z,0.94
2023-03-07T01:36:37.634Z,1.00
2023-03-07T01:39:17.623Z,1.07
2023-03-07T01:41:53.169Z,1.09
2023-03-07T01:44:26.212Z,1.07
2023-03-07T01:47:00.281Z,1.05
2023-03-07T01:49:53.184Z,1.09
2023-03-07T01:52:28.515Z,1.14
2023-03-07T01:55:19.385Z,1.15
2023-03-07T01:57:51.946Z,1.16
2023-03-07T02:00:30.258Z,1.17
2023-03-07T02:03:20.763Z,1.19
2023-03-07T02:05:54.164Z,1.19
2023-03-07T02:08:22.959Z,1.16
2023-03-07T02:10:52.159Z,1.12
2023-03-07T02:13:20.767Z,1.08
2023-03-07T02:15:51.388Z,1.05
2023-03-07T02:18:23.626Z,1.03
2023-03-07T02:21:12.586Z,1.07
2023-03-07T02:24:07.895Z,1.18
2023-03-07T02:26:44.273Z,1.19
2023-03-07T02:29:14.091Z,1.21
2023-03-07T02:31:43.070Z,1.23
2023-03-07T02:34:18.309Z,1.25
2023-03-07T02:36:47.631Z,1.26
2023-03-07T02:39:19.578Z,1.25
2023-03-07T02:41:48.054Z,1.25
2023-03-07T02:44:24.216Z,1.26
2023-03-07T02:46:52.701Z,1.25
2023-03-07T02:49:21.383Z,1.19
2023-03-07T02:51:57.852Z,1.15
2023-03-07T02:54:26.949Z,1.16
2023-03-07T02:56:55.634Z,1.17
2023-03-07T02:59:24.216Z,1.16
2023-03-07T03:01:52.732Z,1.18
2023-03-07T03:04:21.810Z,1.17
2023-03-07T03:06:50.384Z,1.19
2023-03-07T03:09:18.767Z,1.17
2023-03-07T03:11:49.704Z,1.16
2023-03-07T03:14:18.704Z,1.13
2023-03-07T03:16:47.076Z,1.14
2023-03-07T03:19:18.737Z,1.14
2023-03-07T03:21:48.239Z,1.13
2023-03-07T03:24:16.721Z,1.15
2023-03-07T03:26:45.617Z,1.20
2023-03-07T03:29:15.015Z,1.27
2023-03-07T03:31:45.133Z,1.33
2023-03-07T03:34:14.331Z,1.39
2023-03-07T03:36:42.816Z,1.35
2023-03-07T03:39:11.295Z,1.30
2023-03-07T03:41:45.926Z,1.34
2023-03-07T03:44:17.067Z,1.34
2023-03-07T03:46:45.520Z,1.33
2023-03-07T03:49:14.640Z,1.32
2023-03-07T03:51:45.478Z,1.32
2023-03-07T03:54:16.111Z,1.32
2023-03-07T03:56:44.596Z,1.40
2023-03-07T03:59:13.072Z,1.47
2023-03-07T04:01:41.505Z,1.52
2023-03-07T04:04:10.449Z,1.54
2023-03-07T04:06:39.845Z,1.58
2023-03-07T04:09:12.565Z,1.61
2023-03-07T04:11:46.022Z,1.61
2023-03-07T04:14:14.810Z,1.59
2023-03-07T04:16:44.694Z,1.56
2023-03-07T04:19:13.409Z,1.53
2023-03-07T04:21:44.862Z,1.51
2023-03-07T04:24:19.489Z,1.55
2023-03-07T04:26:48.379Z,1.58
2023-03-07T04:29:17.272Z,1.63
2023-03-07T04:31:52.657Z,1.73
2023-03-07T04:34:21.307Z,1.77
2023-03-07T04:36:49.784Z,1.80
2023-03-07T04:39:18.374Z,1.82
2023-03-07T04:41:50.334Z,1.83
2023-03-07T04:44:21.470Z,1.83
2023-03-07T04:46:50.161Z,1.83
2023-03-07T04:50:54.381Z,1.77
2023-03-07T04:53:26.348Z,1.69
2023-03-07T04:55:59.128Z,1.65
2023-03-07T04:58:28.372Z,1.61
2023-03-07T05:00:57.984Z,1.61
2023-03-07T05:03:27.851Z,1.66
2023-03-07T05:05:56.948Z,1.61
2023-03-07T05:08:26.454Z,1.55
2023-03-07T05:10:55.956Z,1.54
2023-03-07T05:13:24.950Z,1.50
2023-03-07T05:15:55.044Z,1.50
2023-03-07T05:18:24.378Z,1.52
2023-03-07T05:20:53.392Z,1.50
2023-03-07T05:23:22.258Z,1.48
2023-03-07T05:25:51.873Z,1.45
2023-03-07T05:28:20.651Z,1.35
2023-03-07T05:30:49.787Z,1.32
2023-03-07T05:33:18.331Z,1.33
2023-03-07T05:35:48.432Z,1.30
2023-03-07T05:38:17.349Z,1.26
2023-03-07T05:40:45.656Z,1.22
2023-03-07T05:43:15.968Z,1.23
2023-03-07T05:45:44.629Z,1.26
2023-03-07T05:48:13.214Z,1.28
2023-03-07T05:50:45.486Z,1.27
2023-03-07T05:53:13.868Z,1.25
2023-03-07T05:55:46.155Z,1.25
2023-03-07T05:58:16.873Z,1.32
2023-03-07T06:00:47.303Z,1.25
2023-03-07T06:03:16.091Z,1.30
2023-03-07T06:05:44.487Z,1.27
2023-03-07T06:08:15.611Z,1.29
2023-03-07T06:10:44.816Z,1.33
2023-03-07T06:13:16.144Z,1.30
2023-03-07T06:15:44.665Z,1.27
2023-03-07T06:18:15.273Z,1.26
2023-03-07T06:20:44.269Z,1.29
2023-03-07T06:23:13.437Z,1.29
2023-03-07T06:25:42.463Z,1.28
2023-03-07T06:28:12.172Z,1.24
2023-03-07T06:30:41.064Z,1.27
2023-03-07T06:33:10.164Z,1.34
2023-03-07T06:35:40.623Z,1.36
2023-03-07T06:38:09.451Z,1.36
2023-03-07T06:40:38.066Z,1.35
2023-03-07T06:43:06.550Z,1.41
2023-03-07T06:45:35.183Z,1.49
2023-03-07T06:48:05.232Z,1.54
2023-03-07T06:50:35.781Z,1.56
2023-03-07T06:53:05.198Z,1.56
2023-03-07T06:55:35.004Z,1.59
2023-03-07T06:58:04.712Z,1.66
2023-03-07T07:00:33.400Z,1.66
2023-03-07T07:03:03.214Z,1.64
2023-03-07T07:05:32.209Z,1.61
2023-03-07T07:08:00.893Z,1.62
2023-03-07T07:10:29.887Z,1.68
2023-03-07T07:12:58.574Z,1.71
2023-03-07T07:15:32.698Z,1.70
2023-03-07T07:18:02.915Z,1.70
2023-03-07T07:20:36.205Z,1.76
2023-03-07T07:23:05.609Z,1.83
2023-03-07T07:25:33.989Z,1.86
2023-03-07T07:28:02.777Z,1.88
2023-03-07T07:30:31.572Z,1.94
2023-03-07T07:33:02.832Z,2.02
2023-03-07T07:35:31.699Z,2.02
2023-03-07T07:38:01.833Z,1.97
2023-03-07T07:40:30.724Z,1.95
2023-03-07T07:42:59.661Z,1.99
2023-03-07T07:45:35.062Z,2.09
2023-03-07T07:48:05.738Z,2.15
2023-03-07T07:50:34.488Z,2.26
2023-03-07T07:53:04.298Z,2.38
2023-03-07T07:55:33.191Z,2.53
2023-03-07T07:58:02.084Z,2.69
2023-03-07T08:00:31.725Z,2.77
2023-03-07T08:03:01.406Z,2.78
2023-03-07T08:05:29.890Z,2.77
2023-03-07T08:07:59.292Z,2.80
2023-03-07T08:10:27.679Z,2.85
2023-03-07T08:12:56.059Z,2.83
2023-03-07T08:15:24.435Z,2.76
2023-03-07T08:17:54.760Z,2.71
2023-03-07T08:20:29.601Z,2.77
2023-03-07T08:22:58.183Z,2.82
2023-03-07T08:25:26.559Z,2.84
2023-03-07T08:27:56.171Z,2.81
2023-03-07T08:30:26.751Z,2.79
2023-03-07T08:32:57.026Z,2.81
2023-03-07T08:35:26.584Z,2.85
2023-03-07T08:37:56.619Z,2.88
2023-03-07T08:40:26.369Z,2.94
2023-03-07T08:42:55.485Z,3.04
2023-03-07T08:45:25.296Z,3.19
2023-03-07T08:47:55.001Z,3.36
2023-03-07T08:50:25.957Z,3.48
2023-03-07T08:52:55.443Z,3.58
2023-03-07T08:55:23.736Z,3.61
2023-03-07T08:57:52.302Z,3.52
2023-03-07T09:00:21.700Z,3.43
2023-03-07T09:02:50.081Z,3.38
2023-03-07T09:05:18.670Z,3.30
2023-03-07T09:07:47.045Z,3.18
2023-03-07T09:10:19.419Z,3.09
2023-03-07T09:12:49.149Z,3.03
2023-03-07T09:15:18.364Z,3.07
2023-03-07T09:17:46.917Z,3.24
2023-03-07T09:20:18.986Z,3.49
2023-03-07T09:22:47.894Z,3.84
2023-03-07T09:25:16.578Z,4.20
2023-03-07T09:27:45.928Z,4.55
2023-03-07T09:30:15.124Z,4.87
2023-03-07T09:32:43.567Z,5.04
2023-03-07T09:35:13.083Z,5.19
2023-03-07T09:37:41.674Z,5.37
2023-03-07T09:40:16.787Z,5.51
2023-03-07T09:43:09.664Z,5.62
2023-03-07T09:45:53.587Z,5.76
2023-03-07T09:49:05.696Z,5.89
2023-03-07T09:51:38.891Z,6.01
2023-03-07T09:54:35.952Z,5.95
2023-03-07T09:57:05.656Z,5.75
2023-03-07T09:59:41.417Z,5.50
2023-03-07T10:02:36.831Z,5.25
2023-03-07T10:05:31.718Z,5.17
2023-03-07T10:08:02.376Z,5.35
2023-03-07T10:11:04.022Z,5.50
2023-03-07T10:13:58.757Z,5.68
2023-03-07T10:16:31.793Z,5.90
2023-03-07T10:19:09.714Z,6.00
2023-03-07T10:21:42.090Z,6.04
2023-03-07T10:24:37.505Z,6.08
2023-03-07T10:27:07.575Z,6.09
2023-03-07T10:29:47.037Z,5.99
2023-03-07T10:32:26.017Z,5.84
2023-03-07T10:35:21.311Z,5.66
2023-03-07T10:38:35.756Z,5.51
2023-03-07T10:41:12.132Z,5.38
2023-03-07T10:43:40.916Z,5.30
2023-03-07T10:46:24.670Z,5.26
2023-03-07T10:49:10.493Z,5.20
2023-03-07T10:52:01.565Z,5.11
2023-03-07T10:54:32.288Z,4.96
2023-03-07T10:57:11.244Z,4.95
2023-03-07T10:59:48.706Z,4.89
2023-03-07T11:02:36.352Z,4.87
2023-03-07T11:05:31.449Z,4.85
2023-03-07T11:08:00.854Z,4.84
2023-03-07T11:10:40.371Z,4.87
2023-03-07T11:13:18.209Z,4.93
2023-03-07T11:15:47.049Z,4.99
2023-03-07T11:18:44.855Z,5.06
2023-03-07T11:21:31.489Z,5.15
2023-03-07T11:24:17.133Z,5.26
2023-03-07T11:26:45.941Z,5.39
2023-03-07T11:29:15.037Z,5.48
2023-03-07T11:32:00.106Z,5.56
2023-03-07T11:34:53.985Z,5.63
2023-03-07T11:37:26.976Z,5.67
2023-03-07T11:40:31.916Z,5.68
2023-03-07T11:43:11.665Z,5.69
2023-03-07T11:45:56.323Z,5.68
2023-03-07T11:48:29.314Z,5.66
2023-03-07T11:50:57.804Z,5.62
2023-03-07T11:53:41.227Z,5.59
2023-03-07T11:56:15.548Z,5.56
2023-03-07T11:59:10.466Z,5.52
2023-03-07T12:01:57.379Z,5.58
2023-03-07T12:04:41.431Z,5.96
2023-03-07T12:07:11.040Z,6.68
2023-03-07T12:09:52.621Z,7.29
2023-03-07T12:12:43.116Z,7.67
2023-03-07T12:15:23.802Z,7.74
2023-03-07T12:18:25.140Z,7.62
2023-03-07T12:21:13.186Z,7.38
2023-03-07T12:23:42.591Z,7.09
2023-03-07T12:26:21.408Z,6.87
2023-03-07T12:28:59.212Z,6.68
2023-03-07T12:31:32.618Z,6.52
2023-03-07T12:34:12.064Z,6.42
2023-03-07T12:36:45.341Z,6.40
2023-03-07T12:39:48.643Z,6.40
2023-03-07T12:42:35.757Z,6.39
2023-03-07T12:45:33.221Z,6.30
2023-03-07T12:48:05.699Z,6.22
2023-03-07T12:50:54.619Z,6.16
2023-03-07T12:53:33.586Z,6.14
2023-03-07T12:56:03.608Z,6.16
2023-03-07T12:58:46.955Z,6.19
2023-03-07T13:01:22.042Z,6.26
2023-03-07T13:04:25.192Z,6.27
2023-03-07T13:06:53.544Z,6.29
2023-03-07T13:09:24.186Z,6.25
2023-03-07T13:12:17.284Z,6.27
2023-03-07T13:14:46.348Z,6.31
2023-03-07T13:17:31.198Z,6.33
2023-03-07T13:20:22.411Z,6.35
2023-03-07T13:22:54.370Z,6.39
2023-03-07T13:25:23.017Z,6.38
2023-03-07T13:27:58.183Z,6.38
2023-03-07T13:30:33.282Z,6.42
2023-03-07T13:33:07.250Z,6.50
2023-03-07T13:35:38.689Z,6.63
2023-03-07T13:38:10.974Z,6.79
2023-03-07T13:40:45.389Z,6.95
2023-03-07T13:43:20.521Z,7.04
2023-03-07T13:46:08.517Z,7.00
2023-03-07T13:48:40.123Z,6.92
2023-03-07T13:51:09.543Z,6.83
2023-03-07T13:53:51.237Z,6.73
2023-03-07T13:56:27.594Z,6.62
2023-03-07T13:59:14.411Z,6.55
2023-03-07T14:02:04.800Z,6.53
2023-03-07T14:04:54.671Z,6.47
2023-03-07T14:07:40.676Z,6.41
2023-03-07T14:10:23.667Z,6.39
2023-03-07T14:13:24.878Z,6.35
2023-03-07T14:15:57.284Z,6.32
2023-03-07T14:18:50.703Z,6.33
2023-03-07T14:21:49.393Z,6.42
2023-03-07T14:24:39.786Z,6.49
2023-03-07T14:27:14.410Z,6.58
2023-03-07T14:29:52.101Z,6.62
2023-03-07T14:32:28.345Z,6.59
2023-03-07T14:34:56.965Z,6.51
2023-03-07T14:37:29.783Z,6.45
2023-03-07T14:39:58.450Z,6.37
2023-03-07T14:42:35.595Z,6.28
2023-03-07T14:45:29.707Z,6.19
2023-03-07T14:48:12.040Z,6.14
2023-03-07T14:50:44.197Z,6.08
2023-03-07T14:53:17.065Z,6.04
2023-03-07T14:55:46.968Z,5.99
2023-03-07T14:58:23.966Z,5.93
2023-03-07T15:01:05.652Z,5.87
2023-03-07T15:03:34.845Z,5.83
2023-03-07T15:06:13.773Z,5.80
2023-03-07T15:08:42.254Z,5.87
2023-03-07T15:11:22.923Z,6.14
2023-03-07T15:13:54.076Z,6.51
2023-03-07T15:16:39.481Z,6.74
2023-03-07T15:19:12.435Z,6.87
2023-03-07T15:21:44.209Z,6.86
2023-03-07T15:24:29.885Z,6.78
2023-03-07T15:26:59.707Z,6.70
2023-03-07T15:29:31.563Z,6.65
2023-03-07T15:32:04.007Z,6.61
2023-03-07T15:34:37.345Z,6.49
2023-03-07T15:37:25.378Z,6.50
2023-03-07T15:40:09.033Z,6.43
2023-03-07T15:42:52.272Z,6.36
2023-03-07T15:45:34.906Z,6.27
2023-03-07T15:48:22.187Z,6.19
2023-03-07T15:50:57.122Z,6.10
2023-03-07T15:53:37.739Z,5.99
2023-03-07T15:56:08.235Z,5.87
2023-03-07T15:58:36.911Z,5.78
2023-03-07T16:01:19.627Z,5.69
2023-03-07T16:03:52.844Z,5.58
2023-03-07T16:06:37.890Z,5.48
2023-03-07T16:09:14.370Z,5.38
2023-03-07T16:11:42.841Z,5.29
2023-03-07T16:14:21.693Z,5.22
2023-03-07T16:16:50.132Z,5.16
2023-03-07T16:19:18.529Z,5.09
2023-03-07T16:21:47.218Z,4.98
2023-03-07T16:24:15.643Z,4.91
2023-03-07T16:26:44.284Z,4.84
2023-03-07T16:29:20.650Z,4.78
2023-03-07T16:31:49.103Z,4.73
2023-03-07T16:34:19.279Z,4.61
2023-03-07T16:36:48.368Z,4.62
2023-03-07T16:39:18.268Z,4.56
2023-03-07T16:41:48.117Z,4.47
2023-03-07T16:44:17.677Z,4.40
2023-03-07T16:46:51.194Z,4.32
2023-03-07T16:49:19.570Z,4.26
2023-03-07T16:52:03.057Z,4.20
2023-03-07T16:54:34.459Z,4.14
2023-03-07T16:57:07.349Z,4.07
2023-03-07T16:59:36.081Z,4.02
2023-03-07T17:02:21.381Z,3.98
2023-03-07T17:04:51.122Z,3.91
2023-03-07T17:08:33.955Z,3.86
2023-03-07T17:11:25.679Z,3.80
2023-03-07T17:13:55.218Z,3.76
2023-03-07T17:16:23.775Z,3.70
2023-03-07T17:18:52.155Z,3.64
2023-03-07T17:21:21.694Z,3.58
2023-03-07T17:23:50.341Z,3.52
2023-03-07T17:26:20.074Z,3.45
2023-03-07T17:28:49.569Z,3.44
2023-03-07T17:31:18.150Z,3.44
2023-03-07T17:33:49.107Z,3.45
2023-03-07T17:36:17.580Z,3.43
2023-03-07T17:38:47.195Z,3.41
2023-03-07T17:41:15.620Z,3.31
2023-03-07T17:43:46.922Z,3.36
2023-03-07T17:46:15.735Z,3.26
2023-03-07T17:48:45.321Z,3.25
2023-03-07T17:51:16.266Z,3.24
2023-03-07T17:53:44.947Z,3.21
2023-03-07T17:56:16.708Z,3.20
2023-03-07T17:58:45.710Z,3.21
2023-03-07T18:01:15.939Z,3.23
2023-03-07T18:03:44.624Z,3.25
2023-03-07T18:06:13.611Z,3.24
2023-03-07T18:08:42.510Z,3.23
2023-03-07T18:11:13.855Z,3.22
2023-03-07T18:13:42.753Z,3.20
2023-03-07T18:16:11.264Z,3.21
2023-03-07T18:18:50.544Z,3.24
2023-03-07T18:21:26.837Z,3.26
2023-03-07T18:23:55.528Z,3.25
2023-03-07T18:26:24.219Z,3.24
2023-03-07T18:28:56.597Z,3.22
2023-03-07T18:31:28.888Z,3.20
2023-03-07T18:34:01.127Z,3.18
2023-03-07T18:36:30.016Z,3.16
2023-03-07T18:38:59.350Z,3.14
2023-03-07T18:41:27.798Z,3.14
2023-03-07T18:43:56.898Z,3.09
2023-03-07T18:46:27.154Z,3.05
2023-03-07T18:48:56.832Z,3.03
2023-03-07T18:51:27.192Z,3.02
2023-03-07T18:53:59.534Z,3.01
2023-03-07T18:56:28.533Z,2.99
2023-03-07T18:58:59.201Z,2.97
2023-03-07T19:01:32.258Z,2.96
2023-03-07T19:04:03.310Z,2.95
2023-03-07T19:06:36.125Z,2.92
2023-03-07T19:09:04.563Z,2.88
2023-03-07T19:11:36.249Z,2.85
2023-03-07T19:14:05.220Z,2.83
2023-03-07T19:16:33.958Z,2.82
2023-03-07T19:19:06.183Z,2.80
2023-03-07T19:21:35.895Z,2.76
2023-03-07T19:24:06.010Z,2.73
2023-03-07T19:26:34.494Z,2.70
2023-03-07T19:29:04.477Z,2.67
2023-03-07T19:31:33.452Z,2.63
2023-03-07T19:34:03.230Z,2.57
2023-03-07T19:36:34.166Z,2.52
2023-03-07T19:39:02.950Z,2.50
2023-03-07T19:41:32.155Z,2.48
2023-03-07T19:44:01.038Z,2.45
2023-03-07T19:46:30.547Z,2.43
2023-03-07T19:49:00.873Z,2.40
2023-03-07T19:51:29.767Z,2.38
2023-03-07T19:53:58.263Z,2.36
2023-03-07T19:56:29.613Z,2.36
2023-03-07T19:58:59.342Z,2.32
2023-03-07T20:01:29.130Z,2.28
2023-03-07T20:03:57.812Z,2.28
2023-03-07T20:06:29.738Z,2.25
2023-03-07T20:08:59.595Z,2.22
2023-03-07T20:11:30.631Z,2.18
2023-03-07T20:14:01.919Z,2.17
2023-03-07T20:16:31.488Z,2.13
2023-03-07T20:19:01.791Z,2.09
2023-03-07T20:21:36.758Z,2.06
2023-03-07T20:24:07.053Z,2.04
2023-03-07T20:26:37.229Z,2.03
2023-03-07T20:29:06.550Z,1.99
2023-03-07T20:31:36.555Z,1.98
2023-03-07T20:34:06.009Z,2.03
2023-03-07T20:36:36.868Z,2.05
2023-03-07T20:39:08.136Z,2.06
2023-03-07T20:41:42.837Z,2.07
2023-03-07T20:44:12.661Z,2.07
2023-03-07T20:46:41.613Z,2.04
2023-03-07T20:49:11.910Z,2.01
2023-03-07T20:51:41.069Z,1.98
2023-03-07T20:54:13.861Z,1.95
2023-03-07T20:56:42.648Z,1.90
2023-03-07T20:59:18.830Z,1.84
2023-03-07T21:01:47.484Z,1.81
2023-03-07T21:04:18.033Z,1.76
2023-03-07T21:06:47.635Z,1.73
2023-03-07T21:09:17.059Z,1.70
2023-03-07T21:11:47.778Z,1.73
2023-03-07T21:14:17.184Z,1.81
2023-03-07T21:16:46.380Z,1.81
2023-03-07T21:19:14.890Z,1.80
2023-03-07T21:21:43.243Z,1.85
2023-03-07T21:24:12.669Z,1.90
2023-03-07T21:26:43.598Z,1.91
2023-03-07T21:29:14.128Z,1.89
2023-03-07T21:31:43.175Z,1.88
2023-03-07T21:34:13.831Z,1.84
2023-03-07T21:36:42.840Z,1.79
2023-03-07T21:39:14.594Z,1.74
2023-03-07T21:41:43.485Z,1.70
2023-03-07T21:44:12.583Z,1.69
2023-03-07T21:46:42.906Z,1.65
2023-03-07T21:49:13.857Z,1.60
2023-03-07T21:51:43.157Z,1.56
2023-03-07T21:54:11.630Z,1.56
2023-03-07T21:56:40.535Z,1.62
2023-03-07T21:59:09.310Z,1.69
2023-03-07T22:01:37.695Z,1.71
2023-03-07T22:04:06.399Z,1.72
2023-03-07T22:06:34.708Z,1.73
2023-03-07T22:09:06.005Z,1.71
2023-03-07T22:11:34.711Z,1.70
2023-03-07T22:14:04.607Z,1.71
2023-03-07T22:16:36.719Z,1.69
2023-03-07T22:19:05.155Z,1.68
2023-03-07T22:21:34.052Z,1.70
2023-03-07T22:24:06.019Z,1.68
2023-03-07T22:26:34.607Z,1.61
2023-03-07T22:29:03.794Z,1.65
2023-03-07T22:31:33.937Z,1.72
2023-03-07T22:34:03.421Z,1.75
2023-03-07T22:36:32.212Z,1.74
2023-03-07T22:39:00.595Z,1.74
2023-03-07T22:41:29.385Z,1.73
2023-03-07T22:43:58.374Z,1.71
2023-03-07T22:46:26.823Z,1.70
2023-03-07T22:48:56.672Z,1.67
2023-03-07T22:51:26.082Z,1.65
2023-03-07T22:53:55.111Z,1.64
2023-03-07T22:56:26.216Z,1.64
2023-03-07T22:58:59.194Z,1.67
2023-03-07T23:01:28.811Z,1.74
2023-03-07T23:03:58.164Z,1.78
2023-03-07T23:06:30.378Z,1.80
2023-03-07T23:08:59.989Z,1.75
2023-03-07T23:11:33.102Z,1.70
2023-03-07T23:14:01.966Z,1.69
2023-03-07T23:16:31.892Z,1.71
2023-03-07T23:19:03.644Z,1.70
2023-03-07T23:21:32.656Z,1.69
2023-03-07T23:24:06.236Z,1.71
2023-03-07T23:26:37.070Z,1.77
2023-03-07T23:29:07.128Z,1.90
2023-03-07T23:31:38.391Z,1.95
2023-03-07T23:34:09.484Z,1.96
2023-03-07T23:36:42.885Z,1.98
2023-03-07T23:39:12.595Z,1.99
2023-03-07T23:41:41.078Z,2.03
2023-03-07T23:44:10.066Z,2.04
2023-03-07T23:46:38.956Z,2.03
2023-03-07T23:49:10.207Z,2.04
2023-03-07T23:51:38.898Z,2.04
2023-03-07T23:54:09.429Z,2.06
2023-03-07T23:56:38.131Z,2.11
2023-03-07T23:59:06.585Z,2.21
